Richfield, Ohio
Current Conditions -  °F | °C
As of 9:54 PM on Friday 24 Oct 2014 (Local Time) from KAKR Reporting Station
Broken Clouds Broken Clouds  
Wind Chill: 55°   Ceiling: 5000
Heat Index: 55°   Visibility: 10mi
Dew Point: 41°   Wind: 3mph
Humidity: 59%   Direction: 210°SSW
Pressure: 30"   Gusts: NA
Location:  41.24°N, 81.64°W
Report Text: KAKR 250154Z AUTO 21003KT 10SM BKN050 13/05 A3000 RMK AO2 SLP158 T01280050
Loading
Personal Weather Stations






























Interactive Weather Map
Tropical Storm Tracking
New forecast layout! Learn more

10-Day Weather Forecast

Advertisements
Track Severe Weather on mobile